createdAt,value
2023-04-17T00:02:04.146Z,9.73
2023-04-17T00:05:09.521Z,11.15
2023-04-17T00:08:13.843Z,10.65
2023-04-17T00:11:18.743Z,11.23
2023-04-17T00:14:24.333Z,10.50
2023-04-17T00:17:27.866Z,12.32
2023-04-17T00:20:31.852Z,11.52
2023-04-17T00:23:35.341Z,11.15
2023-04-17T00:26:39.372Z,12.00
2023-04-17T00:29:44.141Z,12.02
2023-04-17T00:32:48.329Z,11.47
2023-04-17T00:35:52.388Z,11.13
2023-04-17T00:38:56.290Z,10.43
2023-04-17T00:42:00.203Z,10.07
2023-04-17T00:45:10.791Z,10.52
2023-04-17T00:48:17.720Z,10.77
2023-04-17T00:51:22.225Z,10.63
2023-04-17T00:54:26.626Z,11.00
2023-04-17T00:57:31.165Z,11.23
2023-04-17T01:00:36.526Z,11.48
2023-04-17T01:03:40.848Z,11.47
2023-04-17T01:06:44.720Z,11.05
2023-04-17T01:09:48.960Z,11.98
2023-04-17T01:13:03.729Z,12.10
2023-04-17T01:16:09.920Z,11.60
2023-04-17T01:19:16.596Z,11.18
2023-04-17T01:22:21.104Z,10.15
2023-04-17T01:25:30.161Z,10.63
2023-04-17T01:28:34.352Z,10.77
2023-04-17T01:31:37.930Z,12.43
2023-04-17T01:34:41.808Z,12.30
2023-04-17T01:37:45.337Z,13.38
2023-04-17T01:40:51.037Z,15.55
2023-04-17T01:43:54.446Z,15.63
2023-04-17T01:46:58.314Z,16.23
2023-04-17T01:50:01.875Z,16.73
2023-04-17T01:53:06.007Z,16.27
2023-04-17T01:56:11.591Z,16.67
2023-04-17T01:59:15.667Z,16.67
2023-04-17T02:02:19.249Z,16.73
2023-04-17T02:05:23.272Z,16.70
2023-04-17T02:08:27.127Z,16.10
2023-04-17T02:11:32.650Z,15.45
2023-04-17T02:14:36.125Z,15.83
2023-04-17T02:17:40.219Z,16.60
2023-04-17T02:20:47.308Z,16.75
2023-04-17T02:23:51.574Z,17.48
2023-04-17T02:26:56.807Z,16.35
2023-04-17T02:30:00.858Z,16.13
2023-04-17T02:33:04.471Z,14.90
2023-04-17T02:36:09.502Z,15.95
2023-04-17T02:39:18.635Z,13.60
2023-04-17T02:42:24.065Z,14.55
2023-04-17T02:45:27.583Z,13.90
2023-04-17T02:48:33.196Z,13.07
2023-04-17T02:51:36.741Z,13.07
2023-04-17T02:54:40.878Z,11.90
2023-04-17T02:57:46.722Z,12.43
2023-04-17T03:00:50.841Z,12.27
2023-04-17T03:03:55.929Z,11.57
2023-04-17T03:07:00.444Z,13.70
2023-04-17T03:10:06.309Z,11.93
2023-04-17T03:13:11.836Z,12.48
2023-04-17T03:16:15.545Z,12.50
2023-04-17T03:19:21.583Z,11.77
2023-04-17T03:22:25.028Z,12.00
2023-04-17T03:25:29.175Z,11.40
2023-04-17T03:28:34.202Z,11.25
2023-04-17T03:31:39.391Z,12.30
2023-04-17T03:34:42.829Z,12.35
2023-04-17T03:37:46.826Z,13.47
2023-04-17T03:40:50.776Z,12.63
2023-04-17T03:43:57.267Z,12.15
2023-04-17T03:47:00.716Z,12.20
2023-04-17T03:50:05.177Z,12.57
2023-04-17T03:53:13.378Z,12.32
2023-04-17T03:56:17.768Z,13.45
2023-04-17T03:59:23.532Z,14.82
2023-04-17T04:02:27.936Z,15.48
2023-04-17T04:05:31.637Z,16.52
2023-04-17T04:08:35.775Z,14.30
2023-04-17T04:11:39.169Z,12.68
2023-04-17T04:14:44.494Z,13.20
2023-04-17T04:17:49.270Z,13.70
2023-04-17T04:20:53.809Z,12.73
2023-04-17T04:24:04.127Z,12.52
2023-04-17T04:27:09.295Z,13.30
2023-04-17T04:30:15.650Z,12.73
2023-04-17T04:33:22.550Z,12.85
2023-04-17T04:36:29.858Z,12.00
2023-04-17T04:39:47.379Z,13.27
2023-04-17T04:42:52.240Z,13.13
2023-04-17T04:46:02.185Z,12.60
2023-04-17T04:49:08.792Z,11.77
2023-04-17T04:52:13.095Z,11.68
2023-04-17T04:55:16.693Z,11.13
2023-04-17T04:58:26.374Z,12.00
2023-04-17T05:01:34.081Z,10.52
2023-04-17T05:04:38.460Z,9.82
2023-04-17T05:07:42.825Z,10.93
2023-04-17T05:10:51.165Z,10.60
2023-04-17T05:13:55.002Z,10.63
2023-04-17T05:17:07.415Z,9.02
2023-04-17T05:20:13.118Z,10.67
2023-04-17T05:23:24.308Z,9.30
2023-04-17T05:26:28.729Z,10.25
2023-04-17T05:29:33.135Z,10.15
2023-04-17T05:32:38.038Z,10.52
2023-04-17T05:35:58.662Z,10.35
2023-04-17T05:39:02.047Z,10.13
2023-04-17T05:42:06.986Z,10.60
2023-04-17T05:45:14.574Z,11.02
2023-04-17T05:48:20.116Z,10.75
2023-04-17T05:51:23.554Z,10.53
2023-04-17T05:54:29.133Z,11.57
2023-04-17T05:57:33.865Z,10.63
2023-04-17T06:00:38.468Z,9.85
2023-04-17T06:03:46.590Z,10.05
2023-04-17T06:06:57.519Z,10.63
2023-04-17T06:10:01.135Z,10.25
2023-04-17T06:13:05.198Z,9.93
2023-04-17T06:16:08.883Z,10.18
2023-04-17T06:19:14.082Z,9.95
2023-04-17T06:22:17.697Z,10.03
2023-04-17T06:25:21.516Z,10.13
2023-04-17T06:28:25.028Z,10.38
2023-04-17T06:31:31.266Z,9.18
2023-04-17T06:34:41.361Z,9.10
2023-04-17T06:37:52.044Z,8.98
2023-04-17T06:40:55.458Z,9.73
2023-04-17T06:43:59.668Z,10.03
2023-04-17T06:47:17.095Z,10.50
2023-04-17T06:50:22.574Z,10.13
2023-04-17T06:53:27.183Z,12.13
2023-04-17T06:56:31.592Z,11.68
2023-04-17T06:59:35.505Z,11.35
2023-04-17T07:02:39.274Z,11.02
2023-04-17T07:05:45.721Z,10.65
2023-04-17T07:08:49.479Z,10.13
2023-04-17T07:11:52.877Z,10.05
2023-04-17T07:14:57.357Z,10.23
2023-04-17T07:18:00.976Z,11.35
2023-04-17T07:21:06.221Z,10.85
2023-04-17T07:24:09.711Z,10.90
2023-04-17T07:27:13.774Z,11.25
2023-04-17T07:30:17.325Z,11.63
2023-04-17T07:33:21.180Z,12.02
2023-04-17T07:36:28.417Z,12.25
2023-04-17T07:39:32.440Z,11.68
2023-04-17T07:42:35.849Z,12.15
2023-04-17T07:45:41.715Z,12.27
2023-04-17T07:48:46.092Z,11.57
2023-04-17T07:51:51.827Z,11.43
2023-04-17T07:54:55.328Z,11.30
2023-04-17T07:58:01.936Z,11.50
2023-04-17T08:01:06.172Z,11.40
2023-04-17T08:04:10.696Z,11.43
2023-04-17T08:07:15.645Z,12.30
2023-04-17T08:10:19.842Z,11.63
2023-04-17T08:13:23.264Z,11.30
2023-04-17T08:16:27.244Z,11.33
2023-04-17T08:19:30.868Z,11.25
2023-04-17T08:22:40.948Z,11.18
2023-04-17T08:25:45.980Z,11.17
2023-04-17T08:28:49.700Z,10.30
2023-04-17T08:32:00.275Z,11.23
2023-04-17T08:35:13.441Z,11.20
2023-04-17T08:38:18.194Z,10.90
2023-04-17T08:41:26.781Z,10.98
2023-04-17T08:44:30.693Z,10.90
2023-04-17T08:47:35.957Z,11.03
2023-04-17T08:50:39.917Z,11.77
2023-04-17T08:53:45.098Z,10.35
2023-04-17T08:56:48.676Z,11.00
2023-04-17T08:59:52.509Z,10.77
2023-04-17T09:02:57.949Z,10.32
2023-04-17T09:06:02.028Z,10.10
2023-04-17T09:09:06.827Z,9.80
2023-04-17T09:12:11.542Z,10.55
2023-04-17T09:15:19.161Z,9.85
2023-04-17T09:18:25.950Z,10.93
2023-04-17T09:21:29.794Z,10.82
2023-04-17T09:24:38.558Z,10.30
2023-04-17T09:27:41.905Z,10.90
2023-04-17T09:30:45.716Z,10.70
2023-04-17T09:33:58.840Z,11.10
2023-04-17T09:37:03.408Z,10.32
2023-04-17T09:40:12.009Z,10.45
2023-04-17T09:43:15.971Z,10.77
2023-04-17T09:46:38.188Z,10.77
2023-04-17T09:49:49.769Z,10.90
2023-04-17T09:52:55.966Z,11.20
2023-04-17T09:56:05.732Z,11.07
2023-04-17T09:59:09.880Z,10.37
2023-04-17T10:02:16.655Z,9.88
2023-04-17T10:05:21.307Z,9.55
2023-04-17T10:08:25.420Z,9.88
2023-04-17T10:11:37.233Z,9.80
2023-04-17T10:14:46.665Z,8.88
2023-04-17T10:17:50.766Z,8.82
2023-04-17T10:20:55.672Z,8.20
2023-04-17T10:23:59.427Z,9.32
2023-04-17T10:27:55.777Z,8.13
2023-04-17T10:31:01.264Z,7.73
2023-04-17T10:34:04.819Z,7.68
2023-04-17T10:37:08.572Z,8.32
2023-04-17T10:40:14.108Z,8.75
2023-04-17T10:43:22.377Z,7.72
2023-04-17T10:46:27.668Z,8.00
2023-04-17T10:49:50.232Z,8.02
2023-04-17T10:52:54.008Z,8.53
2023-04-17T10:55:58.594Z,8.18
2023-04-17T10:59:06.221Z,7.93
2023-04-17T11:02:10.103Z,7.28
2023-04-17T11:05:14.780Z,7.45
2023-04-17T11:08:18.467Z,7.78
2023-04-17T11:11:35.307Z,7.65
2023-04-17T11:14:47.364Z,7.40
2023-04-17T11:17:51.246Z,6.47
2023-04-17T11:20:54.959Z,6.03
2023-04-17T11:23:58.694Z,6.00
2023-04-17T11:27:03.390Z,5.35
2023-04-17T11:30:10.339Z,5.60
2023-04-17T11:33:14.174Z,5.03
2023-04-17T11:36:18.155Z,6.17
2023-04-17T11:39:25.627Z,5.90
2023-04-17T11:42:29.385Z,5.90
2023-04-17T11:45:35.620Z,6.30
2023-04-17T11:48:39.566Z,4.97
2023-04-17T11:51:46.719Z,5.55
2023-04-17T11:54:59.241Z,5.10
2023-04-17T11:58:06.945Z,5.13
2023-04-17T12:01:13.353Z,5.33
2023-04-17T12:04:22.399Z,5.90
2023-04-17T12:07:26.242Z,5.25
2023-04-17T12:10:41.776Z,5.78
2023-04-17T12:13:45.552Z,5.63
2023-04-17T12:16:51.879Z,5.63
2023-04-17T12:19:55.838Z,6.30
2023-04-17T12:22:59.544Z,5.28
2023-04-17T12:26:03.571Z,5.77
2023-04-17T12:29:07.228Z,5.53
2023-04-17T12:32:12.397Z,5.15
2023-04-17T12:35:17.011Z,5.20
2023-04-17T12:38:20.794Z,5.65
2023-04-17T12:41:26.539Z,6.20
2023-04-17T12:44:30.364Z,6.28
2023-04-17T12:47:35.568Z,5.87
2023-04-17T12:50:42.684Z,5.95
2023-04-17T12:53:47.722Z,5.50
2023-04-17T12:56:51.310Z,5.83
2023-04-17T12:59:55.654Z,5.40
2023-04-17T13:03:01.126Z,5.22
2023-04-17T13:06:05.279Z,5.47
2023-04-17T13:09:08.846Z,5.70
2023-04-17T13:12:13.274Z,7.35
2023-04-17T13:15:17.538Z,6.45
2023-04-17T13:18:22.575Z,6.80
2023-04-17T13:21:26.863Z,6.85
2023-04-17T13:24:30.497Z,6.18
2023-04-17T13:27:34.254Z,6.70
2023-04-17T13:30:38.132Z,6.05
2023-04-17T13:33:43.064Z,6.35
2023-04-17T13:36:48.725Z,5.78
2023-04-17T13:39:52.099Z,5.80
2023-04-17T13:42:55.772Z,5.47
2023-04-17T13:45:59.579Z,5.13
2023-04-17T13:49:04.879Z,6.40
2023-04-17T13:52:08.721Z,6.30
2023-04-17T13:55:14.693Z,6.15
2023-04-17T13:58:18.541Z,6.30
2023-04-17T14:01:22.649Z,5.80
2023-04-17T14:04:28.650Z,5.63
2023-04-17T14:07:32.594Z,5.35
2023-04-17T14:10:36.357Z,5.95
2023-04-17T14:13:40.443Z,5.95
2023-04-17T14:16:46.352Z,5.47
2023-04-17T14:19:52.445Z,5.85
2023-04-17T14:22:55.865Z,5.50
2023-04-17T14:25:59.819Z,5.50
2023-04-17T14:29:04.285Z,5.15
2023-04-17T14:32:07.957Z,5.40
2023-04-17T14:35:13.267Z,5.00
2023-04-17T14:38:17.061Z,5.25
2023-04-17T14:41:21.267Z,5.28
2023-04-17T14:44:25.032Z,4.60
2023-04-17T14:47:30.024Z,5.18
2023-04-17T14:50:35.238Z,5.05
2023-04-17T14:53:38.885Z,5.40
2023-04-17T14:56:42.552Z,5.05
2023-04-17T14:59:46.547Z,5.30
2023-04-17T15:02:50.702Z,6.43
2023-04-17T15:05:57.035Z,7.25
2023-04-17T15:09:00.742Z,6.45
2023-04-17T15:12:04.480Z,6.63
2023-04-17T15:15:09.997Z,6.25
2023-04-17T15:18:14.239Z,6.75
2023-04-17T15:21:19.985Z,6.35
2023-04-17T15:24:24.039Z,5.93
2023-04-17T15:27:27.831Z,7.13
2023-04-17T15:30:32.140Z,5.57
2023-04-17T15:33:35.987Z,6.07
2023-04-17T15:36:41.099Z,6.00
2023-04-17T15:39:44.771Z,5.22
2023-04-17T15:42:48.496Z,6.20
2023-04-17T15:45:53.277Z,5.90
2023-04-17T15:49:08.374Z,5.43
2023-04-17T15:52:14.450Z,5.65
2023-04-17T15:55:18.423Z,5.83
2023-04-17T15:58:22.198Z,5.80
2023-04-17T16:01:26.636Z,6.18
2023-04-17T16:04:30.460Z,5.60
2023-04-17T16:07:35.921Z,5.10
2023-04-17T16:10:39.563Z,5.57
2023-04-17T16:13:43.383Z,5.75
2023-04-17T16:16:46.999Z,6.20
2023-04-17T16:19:50.974Z,7.18
2023-04-17T16:22:56.133Z,6.85
2023-04-17T16:25:59.876Z,7.20
2023-04-17T16:29:03.627Z,7.88
2023-04-17T16:32:07.489Z,8.07
2023-04-17T16:35:11.399Z,8.13
2023-04-17T16:38:16.522Z,8.73
2023-04-17T16:41:20.411Z,8.70
2023-04-17T16:44:24.062Z,8.50
2023-04-17T16:47:30.424Z,8.85
2023-04-17T16:50:34.163Z,8.90
2023-04-17T16:53:41.176Z,8.55
2023-04-17T16:56:45.021Z,5.33
2023-04-17T16:59:48.649Z,5.28
2023-04-17T17:02:52.400Z,4.47
2023-04-17T17:05:57.363Z,4.87
2023-04-17T17:09:02.593Z,5.32
2023-04-17T17:12:06.855Z,5.82
2023-04-17T17:15:11.858Z,5.80
2023-04-17T17:18:15.724Z,6.30
2023-04-17T17:21:19.448Z,7.20
2023-04-17T17:24:24.797Z,6.95
2023-04-17T17:27:28.606Z,7.53
2023-04-17T17:30:32.250Z,8.48
2023-04-17T17:33:36.202Z,8.73
2023-04-17T17:36:39.888Z,8.30
2023-04-17T17:39:45.166Z,7.40
2023-04-17T17:42:49.044Z,7.25
2023-04-17T17:45:53.862Z,6.22
2023-04-17T17:48:57.623Z,5.95
2023-04-17T17:52:01.070Z,5.05
2023-04-17T17:55:07.312Z,4.57
2023-04-17T17:58:11.059Z,3.73
2023-04-17T18:01:16.111Z,3.67
2023-04-17T18:04:20.183Z,3.60
2023-04-17T18:07:25.550Z,3.63
2023-04-17T18:10:30.664Z,3.67
2023-04-17T18:13:34.364Z,3.78
2023-04-17T18:16:38.297Z,3.72
2023-04-17T18:19:42.811Z,4.25
2023-04-17T18:22:46.654Z,4.28
2023-04-17T18:25:59.730Z,4.30
2023-04-17T18:29:03.785Z,3.93
2023-04-17T18:32:07.680Z,4.20
2023-04-17T18:35:11.897Z,5.05
2023-04-17T18:38:16.705Z,4.27
2023-04-17T18:41:23.004Z,5.30
2023-04-17T18:44:26.794Z,4.88
2023-04-17T18:47:30.548Z,5.43
2023-04-17T18:50:34.729Z,5.13
2023-04-17T18:53:38.360Z,5.38
2023-04-17T18:56:43.848Z,4.93
2023-04-17T18:59:47.530Z,5.17
2023-04-17T19:02:51.247Z,5.43
2023-04-17T19:05:55.056Z,6.15
2023-04-17T19:08:59.044Z,5.47
2023-04-17T19:12:04.624Z,6.18
2023-04-17T19:15:11.135Z,5.60
2023-04-17T19:18:15.275Z,5.70
2023-04-17T19:21:18.979Z,5.20
2023-04-17T19:24:22.773Z,4.93
2023-04-17T19:27:28.170Z,5.38
2023-04-17T19:30:31.739Z,5.60
2023-04-17T19:33:35.632Z,5.10
2023-04-17T19:36:40.001Z,5.47
2023-04-17T19:39:43.640Z,5.33
2023-04-17T19:42:48.714Z,5.95
2023-04-17T19:45:52.376Z,6.22
2023-04-17T19:48:56.116Z,5.78
2023-04-17T19:52:00.942Z,5.25
2023-04-17T19:55:08.239Z,5.50
2023-04-17T19:58:13.433Z,5.40
2023-04-17T20:01:17.155Z,5.60
2023-04-17T20:04:20.999Z,5.45
2023-04-17T20:07:24.483Z,4.97
2023-04-17T20:10:28.574Z,5.57
2023-04-17T20:13:33.678Z,5.35
2023-04-17T20:16:37.404Z,4.88
2023-04-17T20:19:41.450Z,5.00
2023-04-17T20:22:45.270Z,5.03
2023-04-17T20:25:49.224Z,4.65
2023-04-17T20:28:55.156Z,4.63
2023-04-17T20:31:58.770Z,4.73
2023-04-17T20:35:03.889Z,4.85
2023-04-17T20:38:08.058Z,4.43
2023-04-17T20:41:11.755Z,4.50
2023-04-17T20:44:18.626Z,4.28
2023-04-17T20:47:22.270Z,4.47
2023-04-17T20:50:25.963Z,4.75
2023-04-17T20:53:29.594Z,4.18
2023-04-17T20:56:33.271Z,4.32
2023-04-17T20:59:38.302Z,4.22
2023-04-17T21:02:42.146Z,4.20
2023-04-17T21:05:46.214Z,4.50
2023-04-17T21:08:50.158Z,4.35
2023-04-17T21:11:53.806Z,4.10
2023-04-17T21:14:58.781Z,4.53
2023-04-17T21:18:02.451Z,4.25
2023-04-17T21:21:06.717Z,4.28
2023-04-17T21:24:11.293Z,4.50
2023-04-17T21:27:15.519Z,4.75
2023-04-17T21:30:20.728Z,4.53
2023-04-17T21:33:24.371Z,4.00
2023-04-17T21:36:28.597Z,3.90
2023-04-17T21:39:33.046Z,3.80
2023-04-17T21:42:37.136Z,3.60
2023-04-17T21:45:42.303Z,3.60
2023-04-17T21:48:45.996Z,3.50
2023-04-17T21:51:49.756Z,3.85
2023-04-17T21:54:53.521Z,3.95
2023-04-17T21:57:56.996Z,4.45
2023-04-17T22:01:02.133Z,3.58
2023-04-17T22:04:06.203Z,2.97
2023-04-17T22:07:09.945Z,3.58
2023-04-17T22:10:13.693Z,3.50
2023-04-17T22:13:17.373Z,3.60
2023-04-17T22:16:22.523Z,3.70
2023-04-17T22:19:26.271Z,3.28
2023-04-17T22:22:30.111Z,3.45
2023-04-17T22:25:33.931Z,3.05
2023-04-17T22:28:37.639Z,3.08
2023-04-17T22:31:42.686Z,3.30
2023-04-17T22:34:49.257Z,3.23
2023-04-17T22:37:52.900Z,3.08
2023-04-17T22:40:56.696Z,3.17
2023-04-17T22:44:00.359Z,3.37
2023-04-17T22:47:05.506Z,3.28
2023-04-17T22:50:11.745Z,3.13
2023-04-17T22:53:15.664Z,2.72
2023-04-17T22:56:19.310Z,2.92
2023-04-17T22:59:22.854Z,3.10
2023-04-17T23:02:27.949Z,2.50
2023-04-17T23:05:31.756Z,2.50
2023-04-17T23:08:35.465Z,2.25
2023-04-17T23:11:39.036Z,2.63
2023-04-17T23:14:43.450Z,2.50
2023-04-17T23:17:49.138Z,2.28
2023-04-17T23:20:52.982Z,2.45
2023-04-17T23:23:57.306Z,2.63
2023-04-17T23:27:01.883Z,2.33
2023-04-17T23:30:06.769Z,2.17
2023-04-17T23:33:11.848Z,2.67
2023-04-17T23:36:15.806Z,2.70
2023-04-17T23:39:19.555Z,2.50
2023-04-17T23:42:23.266Z,2.35
2023-04-17T23:45:27.105Z,2.70
2023-04-17T23:48:32.209Z,2.25
2023-04-17T23:51:36.062Z,2.30
2023-04-17T23:54:39.847Z,2.67
2023-04-17T23:57:43.563Z,2.10
